Kaibito, Arizona
Current Conditions -  °F | °C
As of 7:53 AM on Saturday 20 Dec 2014 (Local Time) from KPGA Reporting Station
Broken Clouds Broken Clouds  
Wind Chill: 30°   Ceiling: 2000
Heat Index: 34°   Visibility: 10mi
Dew Point: 28°   Wind: 5mph
Humidity: 79%   Direction: 190°S
Pressure: 30.19"   Gusts: NA
Location:  36.59°N, 111.11°W
Report Text: KPGA 201453Z AUTO 19004KT 10SM BKN020 01/M02 A3019 RMK AO2 SLP227 T00111022 50002 TSNO
Loading
Personal Weather Stations






























Interactive Weather Map New forecast layout! Learn more

10-Day Weather Forecast

Advertisements
Track Severe Weather on mobile